Terminal Aerodrome Forecast
Issued by NWS Wilmington, OH

Current Version | Previous Version | Text Only | Print | Product List | Glossary Off
Versions: 1 2 3 4 5 6 7 8 9 10 11 12 13 14 15 16 17

245
FTUS41 KILN 232320
TAFDAY
TAF
KDAY 232320Z 2400/2424 VRB03KT P6SM SCT250
      TEMPO 2408/2412 5SM BR
     FM241400 23007KT P6SM SCT030 BKN200
     FM241800 26008KT P6SM SCT045=

USA.gov is the U.S. government's official web portal to all federal, state and local government web resources and services.